sensor_id;sensor_type;location;lat;lon;timestamp;pressure;altitude;pressure_sealevel;temperature;humidity
40908;BME280;51055;59.436;24.778;2023-06-19T00:02:18;101817.28;;;18.75;44.59
40908;BME280;51055;59.436;24.778;2023-06-19T00:04:46;101808.59;;;18.44;45.13
40908;BME280;51055;59.436;24.778;2023-06-19T00:07:14;101816.28;;;18.30;45.72
40908;BME280;51055;59.436;24.778;2023-06-19T00:09:41;101806.28;;;18.22;46.24
40908;BME280;51055;59.436;24.778;2023-06-19T00:12:09;101813.84;;;18.36;45.71
40908;BME280;51055;59.436;24.778;2023-06-19T00:14:37;101810.81;;;18.12;46.45
40908;BME280;51055;59.436;24.778;2023-06-19T00:17:04;101809.13;;;17.92;47.41
40908;BME280;51055;59.436;24.778;2023-06-19T00:19:33;101812.31;;;18.34;46.57
40908;BME280;51055;59.436;24.778;2023-06-19T00:22:04;101814.13;;;18.33;46.09
40908;BME280;51055;59.436;24.778;2023-06-19T00:24:32;101823.47;;;18.39;46.92
40908;BME280;51055;59.436;24.778;2023-06-19T00:27:00;101817.56;;;18.16;47.20
40908;BME280;51055;59.436;24.778;2023-06-19T00:29:31;101821.97;;;18.07;46.90
40908;BME280;51055;59.436;24.778;2023-06-19T00:31:59;101817.59;;;17.97;48.07
40908;BME280;51055;59.436;24.778;2023-06-19T00:34:29;101823.22;;;18.22;47.26
40908;BME280;51055;59.436;24.778;2023-06-19T00:36:58;101827.56;;;18.33;47.29
40908;BME280;51055;59.436;24.778;2023-06-19T00:39:26;101822.25;;;18.14;47.47
40908;BME280;51055;59.436;24.778;2023-06-19T00:41:55;101822.28;;;17.95;48.18
40908;BME280;51055;59.436;24.778;2023-06-19T00:44:23;101826.78;;;18.04;48.13
40908;BME280;51055;59.436;24.778;2023-06-19T00:46:53;101825.47;;;18.27;47.65
40908;BME280;51055;59.436;24.778;2023-06-19T00:49:26;101823.47;;;18.39;47.36
40908;BME280;51055;59.436;24.778;2023-06-19T00:51:55;101825.81;;;17.86;48.95
40908;BME280;51055;59.436;24.778;2023-06-19T00:54:23;101835.53;;;17.67;48.94
40908;BME280;51055;59.436;24.778;2023-06-19T00:56:51;101832.03;;;17.96;48.78
40908;BME280;51055;59.436;24.778;2023-06-19T00:59:20;101834.28;;;18.00;48.71
40908;BME280;51055;59.436;24.778;2023-06-19T01:01:47;101839.94;;;17.88;48.83
40908;BME280;51055;59.436;24.778;2023-06-19T01:04:15;101843.06;;;17.93;49.15
40908;BME280;51055;59.436;24.778;2023-06-19T01:06:57;101840.06;;;17.67;50.21
40908;BME280;51055;59.436;24.778;2023-06-19T01:09:51;101845.88;;;17.91;49.24
40908;BME280;51055;59.436;24.778;2023-06-19T01:12:24;101839.38;;;17.84;49.71
40908;BME280;51055;59.436;24.778;2023-06-19T01:15:00;101844.72;;;17.94;49.35
40908;BME280;51055;59.436;24.778;2023-06-19T01:17:30;101841.75;;;17.97;49.84
40908;BME280;51055;59.436;24.778;2023-06-19T01:19:59;101829.75;;;18.01;49.50
40908;BME280;51055;59.436;24.778;2023-06-19T01:22:28;101835.25;;;18.18;49.09
40908;BME280;51055;59.436;24.778;2023-06-19T01:24:56;101835.84;;;17.74;50.45
40908;BME280;51055;59.436;24.778;2023-06-19T01:27:25;101836.97;;;17.72;50.76
40908;BME280;51055;59.436;24.778;2023-06-19T01:29:58;101835.69;;;18.04;49.45
40908;BME280;51055;59.436;24.778;2023-06-19T01:32:34;101834.25;;;18.10;49.46
40908;BME280;51055;59.436;24.778;2023-06-19T01:35:06;101842.78;;;17.96;49.71
40908;BME280;51055;59.436;24.778;2023-06-19T01:37:38;101844.59;;;17.95;49.60
40908;BME280;51055;59.436;24.778;2023-06-19T01:40:08;101837.41;;;17.86;50.47
40908;BME280;51055;59.436;24.778;2023-06-19T01:42:37;101846.56;;;18.12;49.80
40908;BME280;51055;59.436;24.778;2023-06-19T01:45:06;101836.69;;;17.94;49.90
40908;BME280;51055;59.436;24.778;2023-06-19T01:47:34;101844.31;;;17.69;50.34
40908;BME280;51055;59.436;24.778;2023-06-19T01:50:02;101838.50;;;17.74;50.29
40908;BME280;51055;59.436;24.778;2023-06-19T01:52:30;101831.00;;;18.06;49.88
40908;BME280;51055;59.436;24.778;2023-06-19T01:54:58;101828.59;;;18.13;49.71
40908;BME280;51055;59.436;24.778;2023-06-19T01:57:25;101828.06;;;18.19;49.46
40908;BME280;51055;59.436;24.778;2023-06-19T01:59:53;101833.25;;;18.20;49.68
40908;BME280;51055;59.436;24.778;2023-06-19T02:02:21;101834.84;;;17.56;50.66
40908;BME280;51055;59.436;24.778;2023-06-19T02:04:48;101835.28;;;17.90;50.77
40908;BME280;51055;59.436;24.778;2023-06-19T02:07:15;101834.00;;;17.94;50.72
40908;BME280;51055;59.436;24.778;2023-06-19T02:09:43;101838.78;;;18.00;50.43
40908;BME280;51055;59.436;24.778;2023-06-19T02:12:11;101828.22;;;17.89;51.01
40908;BME280;51055;59.436;24.778;2023-06-19T02:14:38;101824.66;;;17.98;50.64
40908;BME280;51055;59.436;24.778;2023-06-19T02:17:06;101827.22;;;17.99;50.45
40908;BME280;51055;59.436;24.778;2023-06-19T02:19:34;101831.47;;;17.73;51.22
40908;BME280;51055;59.436;24.778;2023-06-19T02:22:01;101828.78;;;18.02;50.92
40908;BME280;51055;59.436;24.778;2023-06-19T02:24:29;101824.84;;;17.96;51.29
40908;BME280;51055;59.436;24.778;2023-06-19T02:26:57;101833.56;;;17.98;50.86
40908;BME280;51055;59.436;24.778;2023-06-19T02:29:25;101829.63;;;18.02;51.09
40908;BME280;51055;59.436;24.778;2023-06-19T02:31:53;101828.50;;;17.76;52.07
40908;BME280;51055;59.436;24.778;2023-06-19T02:34:21;101826.53;;;17.78;51.54
40908;BME280;51055;59.436;24.778;2023-06-19T02:36:51;101833.88;;;17.66;51.99
40908;BME280;51055;59.436;24.778;2023-06-19T02:39:19;101828.78;;;17.73;51.58
40908;BME280;51055;59.436;24.778;2023-06-19T02:41:46;101833.50;;;17.41;52.26
40908;BME280;51055;59.436;24.778;2023-06-19T02:44:14;101824.97;;;17.56;52.01
40908;BME280;51055;59.436;24.778;2023-06-19T02:46:42;101826.69;;;17.77;52.55
40908;BME280;51055;59.436;24.778;2023-06-19T02:49:09;101820.19;;;17.69;52.45
40908;BME280;51055;59.436;24.778;2023-06-19T02:51:37;101815.38;;;17.83;51.59
40908;BME280;51055;59.436;24.778;2023-06-19T02:54:08;101814.72;;;17.41;53.01
40908;BME280;51055;59.436;24.778;2023-06-19T02:56:37;101815.22;;;17.65;53.12
40908;BME280;51055;59.436;24.778;2023-06-19T02:59:05;101803.31;;;17.48;53.23
40908;BME280;51055;59.436;24.778;2023-06-19T03:01:33;101810.56;;;17.86;52.25
40908;BME280;51055;59.436;24.778;2023-06-19T03:04:01;101816.91;;;17.76;51.79
40908;BME280;51055;59.436;24.778;2023-06-19T03:06:28;101816.59;;;17.40;53.22
40908;BME280;51055;59.436;24.778;2023-06-19T03:08:56;101810.53;;;17.57;53.61
40908;BME280;51055;59.436;24.778;2023-06-19T03:11:24;101814.53;;;17.63;53.77
40908;BME280;51055;59.436;24.778;2023-06-19T03:13:53;101819.03;;;17.72;52.94
40908;BME280;51055;59.436;24.778;2023-06-19T03:16:21;101815.66;;;17.70;53.41
40908;BME280;51055;59.436;24.778;2023-06-19T03:18:48;101805.63;;;17.82;53.36
40908;BME280;51055;59.436;24.778;2023-06-19T03:21:19;101811.41;;;17.96;52.70
40908;BME280;51055;59.436;24.778;2023-06-19T03:23:47;101815.94;;;17.86;53.02
40908;BME280;51055;59.436;24.778;2023-06-19T03:26:15;101807.72;;;17.97;52.94
40908;BME280;51055;59.436;24.778;2023-06-19T03:28:43;101814.66;;;17.71;52.66
40908;BME280;51055;59.436;24.778;2023-06-19T03:31:10;101811.56;;;17.66;53.59
40908;BME280;51055;59.436;24.778;2023-06-19T03:33:38;101810.69;;;17.85;53.36
40908;BME280;51055;59.436;24.778;2023-06-19T03:36:05;101811.69;;;18.03;52.96
40908;BME280;51055;59.436;24.778;2023-06-19T03:38:33;101816.31;;;18.01;52.87
40908;BME280;51055;59.436;24.778;2023-06-19T03:41:01;101807.41;;;18.10;52.94
40908;BME280;51055;59.436;24.778;2023-06-19T03:43:30;101803.47;;;18.04;53.45
40908;BME280;51055;59.436;24.778;2023-06-19T03:45:58;101805.72;;;18.18;53.01
40908;BME280;51055;59.436;24.778;2023-06-19T03:48:25;101815.50;;;17.72;53.69
40908;BME280;51055;59.436;24.778;2023-06-19T03:50:53;101807.03;;;17.95;53.48
40908;BME280;51055;59.436;24.778;2023-06-19T03:53:22;101809.13;;;18.01;53.90
40908;BME280;51055;59.436;24.778;2023-06-19T03:55:50;101810.25;;;17.99;54.12
40908;BME280;51055;59.436;24.778;2023-06-19T03:58:20;101808.13;;;18.12;54.26
40908;BME280;51055;59.436;24.778;2023-06-19T04:00:48;101816.75;;;18.15;54.21
40908;BME280;51055;59.436;24.778;2023-06-19T04:03:15;101810.91;;;18.30;53.31
40908;BME280;51055;59.436;24.778;2023-06-19T04:05:43;101808.56;;;17.98;53.68
40908;BME280;51055;59.436;24.778;2023-06-19T04:08:11;101815.94;;;17.86;54.64
40908;BME280;51055;59.436;24.778;2023-06-19T04:10:38;101816.47;;;18.09;54.83
40908;BME280;51055;59.436;24.778;2023-06-19T04:13:06;101816.72;;;18.25;54.24
40908;BME280;51055;59.436;24.778;2023-06-19T04:15:34;101812.47;;;18.32;53.82
40908;BME280;51055;59.436;24.778;2023-06-19T04:18:03;101814.41;;;18.40;54.08
40908;BME280;51055;59.436;24.778;2023-06-19T04:20:31;101817.09;;;18.40;53.94
40908;BME280;51055;59.436;24.778;2023-06-19T04:22:58;101805.06;;;18.44;54.29
40908;BME280;51055;59.436;24.778;2023-06-19T04:25:26;101806.63;;;18.37;54.31
40908;BME280;51055;59.436;24.778;2023-06-19T04:27:53;101798.44;;;18.38;54.49
40908;BME280;51055;59.436;24.778;2023-06-19T04:30:21;101809.47;;;18.45;54.21
40908;BME280;51055;59.436;24.778;2023-06-19T04:32:49;101811.59;;;18.41;54.52
40908;BME280;51055;59.436;24.778;2023-06-19T04:35:16;101811.03;;;18.38;54.69
40908;BME280;51055;59.436;24.778;2023-06-19T04:37:45;101804.50;;;18.40;54.99
40908;BME280;51055;59.436;24.778;2023-06-19T04:40:16;101809.91;;;18.31;54.91
40908;BME280;51055;59.436;24.778;2023-06-19T04:42:43;101814.16;;;18.23;55.26
40908;BME280;51055;59.436;24.778;2023-06-19T04:45:11;101811.63;;;18.32;54.86
40908;BME280;51055;59.436;24.778;2023-06-19T04:47:38;101805.09;;;18.34;54.73
40908;BME280;51055;59.436;24.778;2023-06-19T04:50:20;101806.91;;;18.43;55.57
40908;BME280;51055;59.436;24.778;2023-06-19T04:52:49;101813.81;;;18.55;55.13
40908;BME280;51055;59.436;24.778;2023-06-19T04:55:19;101807.03;;;18.61;54.48
40908;BME280;51055;59.436;24.778;2023-06-19T04:57:47;101812.78;;;18.66;54.84
40908;BME280;51055;59.436;24.778;2023-06-19T05:00:15;101810.53;;;18.71;54.78
40908;BME280;51055;59.436;24.778;2023-06-19T05:02:46;101816.59;;;18.73;54.13
40908;BME280;51055;59.436;24.778;2023-06-19T05:05:15;101817.16;;;18.77;54.65
40908;BME280;51055;59.436;24.778;2023-06-19T05:07:44;101815.25;;;18.87;54.25
40908;BME280;51055;59.436;24.778;2023-06-19T05:10:12;101816.38;;;18.94;54.08
40908;BME280;51055;59.436;24.778;2023-06-19T05:12:40;101811.00;;;19.11;54.00
40908;BME280;51055;59.436;24.778;2023-06-19T05:15:08;101807.81;;;19.25;53.52
40908;BME280;51055;59.436;24.778;2023-06-19T05:17:35;101819.63;;;19.42;52.84
40908;BME280;51055;59.436;24.778;2023-06-19T05:20:06;101818.31;;;19.64;53.47
40908;BME280;51055;59.436;24.778;2023-06-19T05:22:37;101819.19;;;19.82;51.97
40908;BME280;51055;59.436;24.778;2023-06-19T05:25:05;101812.00;;;20.08;51.16
40908;BME280;51055;59.436;24.778;2023-06-19T05:27:33;101809.97;;;20.28;50.39
40908;BME280;51055;59.436;24.778;2023-06-19T05:30:01;101816.09;;;20.38;50.88
40908;BME280;51055;59.436;24.778;2023-06-19T05:32:29;101810.94;;;20.53;50.49
40908;BME280;51055;59.436;24.778;2023-06-19T05:34:56;101811.16;;;20.59;50.37
40908;BME280;51055;59.436;24.778;2023-06-19T05:37:24;101809.25;;;20.77;49.93
40908;BME280;51055;59.436;24.778;2023-06-19T05:39:52;101812.53;;;21.05;49.15
40908;BME280;51055;59.436;24.778;2023-06-19T05:42:19;101817.69;;;21.16;48.61
40908;BME280;51055;59.436;24.778;2023-06-19T05:44:47;101820.56;;;21.31;49.05
40908;BME280;51055;59.436;24.778;2023-06-19T05:47:15;101815.50;;;21.28;48.71
40908;BME280;51055;59.436;24.778;2023-06-19T05:49:44;101810.84;;;21.54;48.16
40908;BME280;51055;59.436;24.778;2023-06-19T05:52:12;101808.66;;;21.74;46.48
40908;BME280;51055;59.436;24.778;2023-06-19T05:54:39;101816.94;;;21.80;46.95
40908;BME280;51055;59.436;24.778;2023-06-19T05:57:07;101814.44;;;22.11;45.95
40908;BME280;51055;59.436;24.778;2023-06-19T05:59:35;101813.25;;;22.06;46.06
40908;BME280;51055;59.436;24.778;2023-06-19T06:02:03;101812.91;;;22.17;46.80
40908;BME280;51055;59.436;24.778;2023-06-19T06:04:31;101821.66;;;22.43;45.45
40908;BME280;51055;59.436;24.778;2023-06-19T06:06:58;101823.19;;;22.38;45.15
40908;BME280;51055;59.436;24.778;2023-06-19T06:09:26;101820.16;;;22.41;47.54
40908;BME280;51055;59.436;24.778;2023-06-19T06:11:54;101820.44;;;22.54;46.93
40908;BME280;51055;59.436;24.778;2023-06-19T06:14:23;101816.69;;;22.63;47.74
40908;BME280;51055;59.436;24.778;2023-06-19T06:16:51;101815.13;;;22.84;47.43
40908;BME280;51055;59.436;24.778;2023-06-19T06:19:22;101821.59;;;23.14;45.85
40908;BME280;51055;59.436;24.778;2023-06-19T06:21:53;101815.81;;;23.17;46.85
40908;BME280;51055;59.436;24.778;2023-06-19T06:24:21;101820.06;;;23.51;45.41
40908;BME280;51055;59.436;24.778;2023-06-19T06:26:48;101824.34;;;23.45;45.52
40908;BME280;51055;59.436;24.778;2023-06-19T06:29:16;101830.84;;;23.59;45.48
40908;BME280;51055;59.436;24.778;2023-06-19T06:31:46;101827.28;;;23.58;45.36
40908;BME280;51055;59.436;24.778;2023-06-19T06:34:14;101822.03;;;23.79;45.39
40908;BME280;51055;59.436;24.778;2023-06-19T06:36:42;101830.59;;;23.91;45.11
40908;BME280;51055;59.436;24.778;2023-06-19T06:39:23;101832.25;;;24.15;44.12
40908;BME280;51055;59.436;24.778;2023-06-19T06:41:51;101816.22;;;24.28;44.24
40908;BME280;51055;59.436;24.778;2023-06-19T06:44:19;101827.75;;;24.45;43.18
40908;BME280;51055;59.436;24.778;2023-06-19T06:46:47;101826.66;;;24.54;43.34
40908;BME280;51055;59.436;24.778;2023-06-19T06:49:15;101826.16;;;24.65;43.41
40908;BME280;51055;59.436;24.778;2023-06-19T06:51:44;101819.09;;;24.93;41.92
40908;BME280;51055;59.436;24.778;2023-06-19T06:54:11;101821.38;;;25.25;41.20
40908;BME280;51055;59.436;24.778;2023-06-19T06:56:39;101816.94;;;25.39;41.49
40908;BME280;51055;59.436;24.778;2023-06-19T06:59:07;101816.00;;;25.68;40.76
40908;BME280;51055;59.436;24.778;2023-06-19T07:01:35;101815.88;;;25.97;40.32
40908;BME280;51055;59.436;24.778;2023-06-19T07:04:03;101815.03;;;25.97;40.38
40908;BME280;51055;59.436;24.778;2023-06-19T07:06:30;101810.13;;;26.13;39.70
40908;BME280;51055;59.436;24.778;2023-06-19T07:08:58;101816.47;;;26.48;39.09
40908;BME280;51055;59.436;24.778;2023-06-19T07:11:26;101815.72;;;26.61;38.43
40908;BME280;51055;59.436;24.778;2023-06-19T07:13:54;101815.00;;;26.80;37.94
40908;BME280;51055;59.436;24.778;2023-06-19T07:16:22;101813.59;;;26.84;37.96
40908;BME280;51055;59.436;24.778;2023-06-19T07:18:49;101812.16;;;26.95;37.43
40908;BME280;51055;59.436;24.778;2023-06-19T07:21:17;101814.13;;;27.14;37.17
40908;BME280;51055;59.436;24.778;2023-06-19T07:23:45;101820.50;;;27.34;36.97
40908;BME280;51055;59.436;24.778;2023-06-19T07:26:15;101815.13;;;27.54;36.06
40908;BME280;51055;59.436;24.778;2023-06-19T07:28:42;101814.09;;;27.61;36.25
40908;BME280;51055;59.436;24.778;2023-06-19T07:31:10;101817.44;;;27.57;36.18
40908;BME280;51055;59.436;24.778;2023-06-19T07:33:38;101813.78;;;27.36;36.88
40908;BME280;51055;59.436;24.778;2023-06-19T07:36:05;101812.44;;;27.73;35.53
40908;BME280;51055;59.436;24.778;2023-06-19T07:38:33;101822.72;;;27.71;35.66
40908;BME280;51055;59.436;24.778;2023-06-19T07:41:00;101816.88;;;27.87;34.89
40908;BME280;51055;59.436;24.778;2023-06-19T07:43:28;101818.09;;;27.85;35.89
40908;BME280;51055;59.436;24.778;2023-06-19T07:45:56;101815.59;;;27.90;35.69
40908;BME280;51055;59.436;24.778;2023-06-19T07:48:23;101815.19;;;28.00;34.91
40908;BME280;51055;59.436;24.778;2023-06-19T07:50:53;101817.50;;;28.09;35.10
40908;BME280;51055;59.436;24.778;2023-06-19T07:53:20;101808.47;;;28.22;34.56
40908;BME280;51055;59.436;24.778;2023-06-19T07:55:48;101809.94;;;28.11;35.00
40908;BME280;51055;59.436;24.778;2023-06-19T07:58:16;101806.78;;;28.21;33.98
40908;BME280;51055;59.436;24.778;2023-06-19T08:00:44;101810.34;;;27.95;34.68
40908;BME280;51055;59.436;24.778;2023-06-19T08:03:11;101811.41;;;27.81;34.89
40908;BME280;51055;59.436;24.778;2023-06-19T08:05:39;101807.59;;;27.82;34.78
40908;BME280;51055;59.436;24.778;2023-06-19T08:08:07;101808.22;;;27.58;34.42
40908;BME280;51055;59.436;24.778;2023-06-19T08:10:35;101805.41;;;27.38;34.62
40908;BME280;51055;59.436;24.778;2023-06-19T08:13:02;101801.78;;;27.18;33.99
40908;BME280;51055;59.436;24.778;2023-06-19T08:15:30;101798.81;;;27.06;34.63
40908;BME280;51055;59.436;24.778;2023-06-19T08:17:58;101799.78;;;26.85;35.28
40908;BME280;51055;59.436;24.778;2023-06-19T08:20:25;101801.22;;;26.81;33.75
40908;BME280;51055;59.436;24.778;2023-06-19T08:22:53;101797.56;;;26.68;33.17
40908;BME280;51055;59.436;24.778;2023-06-19T08:25:21;101805.47;;;26.56;33.32
40908;BME280;51055;59.436;24.778;2023-06-19T08:27:49;101806.88;;;25.75;33.31
40908;BME280;51055;59.436;24.778;2023-06-19T08:30:17;101803.94;;;25.20;33.24
40908;BME280;51055;59.436;24.778;2023-06-19T08:32:46;101810.44;;;25.19;33.70
40908;BME280;51055;59.436;24.778;2023-06-19T08:35:15;101808.41;;;25.06;33.41
40908;BME280;51055;59.436;24.778;2023-06-19T08:37:43;101796.63;;;24.84;34.40
40908;BME280;51055;59.436;24.778;2023-06-19T08:40:12;101802.22;;;25.12;35.56
40908;BME280;51055;59.436;24.778;2023-06-19T08:42:39;101798.44;;;25.13;34.86
40908;BME280;51055;59.436;24.778;2023-06-19T08:45:10;101796.72;;;25.27;34.89
40908;BME280;51055;59.436;24.778;2023-06-19T08:47:38;101790.34;;;25.34;34.20
40908;BME280;51055;59.436;24.778;2023-06-19T08:50:06;101795.69;;;25.49;33.79
40908;BME280;51055;59.436;24.778;2023-06-19T08:52:34;101798.00;;;25.46;33.42
40908;BME280;51055;59.436;24.778;2023-06-19T08:55:02;101797.88;;;25.54;32.94
40908;BME280;51055;59.436;24.778;2023-06-19T08:57:39;101800.50;;;25.47;33.32
40908;BME280;51055;59.436;24.778;2023-06-19T09:00:07;101802.94;;;25.21;31.97
40908;BME280;51055;59.436;24.778;2023-06-19T09:02:40;101799.78;;;25.03;32.62
40908;BME280;51055;59.436;24.778;2023-06-19T09:05:16;101797.09;;;24.73;32.31
40908;BME280;51055;59.436;24.778;2023-06-19T09:07:53;101800.91;;;24.79;33.54
40908;BME280;51055;59.436;24.778;2023-06-19T09:10:22;101802.13;;;24.91;33.22
40908;BME280;51055;59.436;24.778;2023-06-19T09:13:01;101799.72;;;24.96;32.33
40908;BME280;51055;59.436;24.778;2023-06-19T09:15:34;101799.63;;;24.90;32.68
40908;BME280;51055;59.436;24.778;2023-06-19T09:18:09;101798.84;;;24.81;32.64
40908;BME280;51055;59.436;24.778;2023-06-19T09:20:41;101806.50;;;24.77;32.42
40908;BME280;51055;59.436;24.778;2023-06-19T09:23:12;101793.34;;;24.60;31.72
40908;BME280;51055;59.436;24.778;2023-06-19T09:25:53;101799.69;;;24.81;32.13
40908;BME280;51055;59.436;24.778;2023-06-19T09:28:24;101792.38;;;24.67;32.34
40908;BME280;51055;59.436;24.778;2023-06-19T09:33:20;101786.97;;;24.53;33.21
40908;BME280;51055;59.436;24.778;2023-06-19T09:35:49;101787.63;;;24.40;32.70
40908;BME280;51055;59.436;24.778;2023-06-19T09:38:17;101785.13;;;24.53;34.15
40908;BME280;51055;59.436;24.778;2023-06-19T09:40:47;101794.28;;;24.38;32.89
40908;BME280;51055;59.436;24.778;2023-06-19T09:43:19;101782.97;;;24.63;33.32
40908;BME280;51055;59.436;24.778;2023-06-19T09:45:48;101792.47;;;24.74;32.83
40908;BME280;51055;59.436;24.778;2023-06-19T09:48:24;101792.31;;;24.09;33.08
40908;BME280;51055;59.436;24.778;2023-06-19T09:50:56;101800.88;;;24.20;33.78
40908;BME280;51055;59.436;24.778;2023-06-19T09:53:25;101793.69;;;23.90;33.78
40908;BME280;51055;59.436;24.778;2023-06-19T09:55:53;101787.72;;;24.17;33.96
40908;BME280;51055;59.436;24.778;2023-06-19T09:58:24;101774.72;;;24.42;34.75
40908;BME280;51055;59.436;24.778;2023-06-19T10:00:52;101792.22;;;24.40;33.86
40908;BME280;51055;59.436;24.778;2023-06-19T10:03:21;101790.00;;;23.83;34.11
40908;BME280;51055;59.436;24.778;2023-06-19T10:06:00;101800.44;;;23.94;33.90
40908;BME280;51055;59.436;24.778;2023-06-19T10:08:42;101797.34;;;23.97;34.39
40908;BME280;51055;59.436;24.778;2023-06-19T10:11:11;101786.25;;;24.07;34.94
40908;BME280;51055;59.436;24.778;2023-06-19T10:13:42;101781.09;;;23.97;34.52
40908;BME280;51055;59.436;24.778;2023-06-19T10:16:20;101796.00;;;24.16;33.72
40908;BME280;51055;59.436;24.778;2023-06-19T10:18:48;101790.78;;;24.14;34.26
40908;BME280;51055;59.436;24.778;2023-06-19T10:21:17;101783.91;;;24.04;34.50
40908;BME280;51055;59.436;24.778;2023-06-19T10:23:53;101784.63;;;24.35;34.78
40908;BME280;51055;59.436;24.778;2023-06-19T10:26:34;101783.25;;;24.54;34.13
40908;BME280;51055;59.436;24.778;2023-06-19T10:29:12;101779.31;;;24.56;34.29
40908;BME280;51055;59.436;24.778;2023-06-19T10:31:40;101775.47;;;24.65;34.51
40908;BME280;51055;59.436;24.778;2023-06-19T10:34:08;101780.97;;;24.72;34.49
40908;BME280;51055;59.436;24.778;2023-06-19T10:36:36;101775.09;;;24.68;34.20
40908;BME280;51055;59.436;24.778;2023-06-19T10:39:04;101792.31;;;24.75;33.60
40908;BME280;51055;59.436;24.778;2023-06-19T10:41:32;101791.19;;;24.03;35.22
40908;BME280;51055;59.436;24.778;2023-06-19T10:44:07;101778.44;;;23.89;35.69
40908;BME280;51055;59.436;24.778;2023-06-19T10:46:40;101784.75;;;24.04;35.30
40908;BME280;51055;59.436;24.778;2023-06-19T10:49:09;101782.59;;;24.37;35.19
40908;BME280;51055;59.436;24.778;2023-06-19T10:51:39;101785.75;;;24.26;35.64
40908;BME280;51055;59.436;24.778;2023-06-19T10:54:07;101771.16;;;24.42;35.00
40908;BME280;51055;59.436;24.778;2023-06-19T10:56:35;101776.97;;;24.24;35.67
40908;BME280;51055;59.436;24.778;2023-06-19T10:59:06;101776.75;;;24.25;36.96
40908;BME280;51055;59.436;24.778;2023-06-19T11:04:07;101777.41;;;23.90;38.06
40908;BME280;51055;59.436;24.778;2023-06-19T11:06:36;101777.25;;;24.06;37.91
40908;BME280;51055;59.436;24.778;2023-06-19T11:09:06;101773.09;;;24.18;37.37
40908;BME280;51055;59.436;24.778;2023-06-19T11:11:48;101770.59;;;24.31;37.13
40908;BME280;51055;59.436;24.778;2023-06-19T11:14:16;101776.31;;;23.99;37.86
40908;BME280;51055;59.436;24.778;2023-06-19T11:16:46;101781.59;;;24.15;38.02
40908;BME280;51055;59.436;24.778;2023-06-19T11:19:19;101764.72;;;24.05;37.65
40908;BME280;51055;59.436;24.778;2023-06-19T11:21:51;101766.88;;;24.18;38.02
40908;BME280;51055;59.436;24.778;2023-06-19T11:24:20;101770.38;;;24.18;37.97
40908;BME280;51055;59.436;24.778;2023-06-19T11:26:50;101766.00;;;23.80;38.22
40908;BME280;51055;59.436;24.778;2023-06-19T11:29:24;101765.09;;;24.02;39.21
40908;BME280;51055;59.436;24.778;2023-06-19T11:32:04;101766.59;;;24.27;38.51
40908;BME280;51055;59.436;24.778;2023-06-19T11:34:33;101762.69;;;24.07;38.65
40908;BME280;51055;59.436;24.778;2023-06-19T11:37:12;101759.13;;;24.07;38.45
40908;BME280;51055;59.436;24.778;2023-06-19T11:39:42;101753.19;;;24.26;38.97
40908;BME280;51055;59.436;24.778;2023-06-19T11:42:10;101766.84;;;24.32;38.91
40908;BME280;51055;59.436;24.778;2023-06-19T11:44:54;101773.31;;;24.31;38.29
40908;BME280;51055;59.436;24.778;2023-06-19T11:47:22;101771.75;;;24.37;37.51
40908;BME280;51055;59.436;24.778;2023-06-19T11:49:50;101763.88;;;24.27;37.94
40908;BME280;51055;59.436;24.778;2023-06-19T11:52:18;101752.56;;;24.38;38.02
40908;BME280;51055;59.436;24.778;2023-06-19T11:54:46;101753.69;;;24.44;38.71
40908;BME280;51055;59.436;24.778;2023-06-19T11:57:13;101753.59;;;24.38;37.91
40908;BME280;51055;59.436;24.778;2023-06-19T11:59:41;101745.19;;;24.47;36.96
40908;BME280;51055;59.436;24.778;2023-06-19T12:02:09;101745.34;;;24.46;36.73
40908;BME280;51055;59.436;24.778;2023-06-19T12:04:37;101747.41;;;24.14;36.30
40908;BME280;51055;59.436;24.778;2023-06-19T12:07:05;101741.00;;;24.07;37.28
40908;BME280;51055;59.436;24.778;2023-06-19T12:09:33;101734.88;;;24.28;37.57
40908;BME280;51055;59.436;24.778;2023-06-19T12:12:01;101734.97;;;24.34;36.03
40908;BME280;51055;59.436;24.778;2023-06-19T12:14:29;101732.72;;;24.38;36.48
40908;BME280;51055;59.436;24.778;2023-06-19T12:16:57;101728.81;;;24.41;36.24
40908;BME280;51055;59.436;24.778;2023-06-19T12:19:26;101724.13;;;24.49;36.15
40908;BME280;51055;59.436;24.778;2023-06-19T12:21:55;101727.47;;;24.51;34.99
40908;BME280;51055;59.436;24.778;2023-06-19T12:24:22;101733.41;;;24.40;33.53
40908;BME280;51055;59.436;24.778;2023-06-19T12:26:50;101725.16;;;24.19;34.44
40908;BME280;51055;59.436;24.778;2023-06-19T12:29:18;101728.09;;;24.09;34.16
40908;BME280;51055;59.436;24.778;2023-06-19T12:31:48;101721.25;;;23.99;34.56
40908;BME280;51055;59.436;24.778;2023-06-19T12:34:15;101718.50;;;24.21;35.31
40908;BME280;51055;59.436;24.778;2023-06-19T12:36:57;101721.41;;;24.34;34.77
40908;BME280;51055;59.436;24.778;2023-06-19T12:39:25;101723.56;;;24.39;34.39
40908;BME280;51055;59.436;24.778;2023-06-19T12:41:54;101733.47;;;24.32;34.40
40908;BME280;51055;59.436;24.778;2023-06-19T12:44:21;101723.56;;;24.39;34.39
40908;BME280;51055;59.436;24.778;2023-06-19T12:46:50;101730.78;;;24.47;33.53
40908;BME280;51055;59.436;24.778;2023-06-19T12:49:17;101719.84;;;24.40;34.27
40908;BME280;51055;59.436;24.778;2023-06-19T12:51:45;101716.66;;;24.36;34.07
40908;BME280;51055;59.436;24.778;2023-06-19T12:54:15;101716.00;;;24.20;34.37
40908;BME280;51055;59.436;24.778;2023-06-19T12:56:44;101716.00;;;24.20;34.29